Time;durP1;ratioP1;P1;durP2;ratioP2;P2;SDS_P1;SDS_P2;PMS_P1;PMS_P2;Temp;Humidity;BMP_temperature;BMP_pressure;BME280_temperature;BME280_humidity;BME280_pressure;Samples;Min_cycle;Max_cycle;Signal;HPM_P1;HPM_P2
2021/06/05 00:00:37;;;;;;;4.47;3.33;;;;;;;15.67;57.69;100045.52;1654385;85;21292;-78
2021/06/05 00:03:04;;;;;;;5.78;3.85;;;;;;;15.66;57.69;100045.79;1655016;85;21015;-78
2021/06/05 00:05:47;;;;;;;4.78;3.33;;;;;;;15.68;57.64;100042.27;1694740;84;21082;-77
2021/06/05 00:08:14;;;;;;;5.83;3.77;;;;;;;15.66;57.79;100040.36;1692837;84;21005;-81
2021/06/05 00:10:46;;;;;;;11.78;3.45;;;;;;;15.60;57.96;100044.16;1673026;85;20995;-76
2021/06/05 00:13:21;;;;;;;4.03;3.47;;;;;;;15.55;58.09;100037.39;1695301;84;21217;-79
2021/06/05 00:15:48;;;;;;;10.88;3.85;;;;;;;15.55;58.10;100037.39;1691947;84;20948;-77
2021/06/05 00:18:14;;;;;;;4.75;3.92;;;;;;;15.50;58.20;100038.73;1692183;84;20993;-76
2021/06/05 00:20:42;;;;;;;22.42;4.90;;;;;;;15.50;58.13;100036.02;1667479;84;20917;-76
2021/06/05 00:23:11;;;;;;;6.55;3.02;;;;;;;15.45;58.25;100034.13;1695648;80;21082;-80
2021/06/05 00:25:39;;;;;;;8.55;3.90;;;;;;;15.43;58.28;100039.03;1696508;80;21141;-75
2021/06/05 00:28:05;;;;;;;7.03;3.85;;;;;;;15.40;58.31;100030.61;1701514;84;21079;-75
2021/06/05 00:30:32;;;;;;;9.20;3.85;;;;;;;15.38;58.56;100036.32;1687385;84;21060;-75
2021/06/05 00:32:59;;;;;;;6.25;3.50;;;;;;;15.36;58.71;100039.02;1645700;85;21076;-76
2021/06/05 00:35:26;;;;;;;9.38;3.37;;;;;;;15.33;59.15;100040.39;1697932;84;21047;-75
2021/06/05 00:37:54;;;;;;;8.93;3.70;;;;;;;15.26;59.20;100037.13;1672415;84;21041;-76
2021/06/05 00:40:24;;;;;;;3.83;3.27;;;;;;;15.18;59.63;100037.68;1701311;84;20932;-77
2021/06/05 00:42:53;;;;;;;5.85;4.47;;;;;;;15.11;59.77;100043.90;1685692;84;21061;-76
2021/06/05 00:45:20;;;;;;;9.78;4.45;;;;;;;15.00;59.98;100039.05;1680031;83;20996;-77
2021/06/05 00:47:47;;;;;;;8.83;3.95;;;;;;;14.93;60.23;100037.13;1714463;83;21032;-82
2021/06/05 00:50:15;;;;;;;5.70;3.85;;;;;;;14.85;60.48;100034.96;1695495;83;21503;-78
2021/06/05 00:52:44;;;;;;;6.47;4.17;;;;;;;14.77;60.73;100039.00;1703834;84;20999;-77
2021/06/05 00:55:14;;;;;;;6.85;3.30;;;;;;;14.70;60.76;100030.34;1668953;84;21508;-78
2021/06/05 00:57:41;;;;;;;4.83;4.10;;;;;;;14.64;60.87;100034.11;1677435;84;21020;-79
2021/06/05 01:00:24;;;;;;;5.17;4.00;;;;;;;14.61;61.04;100033.84;1703939;84;21055;-77
2021/06/05 01:02:52;;;;;;;3.72;3.40;;;;;;;14.54;61.21;100035.44;1685953;84;21106;-75
2021/06/05 01:05:19;;;;;;;5.50;3.72;;;;;;;14.48;61.43;100034.36;1711123;83;20979;-76
2021/06/05 01:07:45;;;;;;;7.33;3.80;;;;;;;14.39;61.80;100034.86;1693412;83;21672;-76
2021/06/05 01:10:17;;;;;;;3.72;3.42;;;;;;;14.30;62.08;100035.61;1636538;85;21064;-77
2021/06/05 01:13:07;;;;;;;6.03;4.10;;;;;;;14.26;62.15;100038.04;1657293;85;21013;-71
2021/06/05 01:15:46;;;;;;;7.22;4.00;;;;;;;14.25;62.24;100031.00;1656277;85;20964;-71
2021/06/05 01:18:24;;;;;;;6.45;4.40;;;;;;;14.21;62.21;100040.72;1636361;86;21087;-70
2021/06/05 01:21:28;;;;;;;4.25;3.42;;;;;;;14.21;62.24;100031.80;1636034;86;20983;-71
2021/06/05 01:24:30;;;;;;;4.47;3.30;;;;;;;14.21;62.34;100035.84;1674379;85;21062;-70
2021/06/05 01:27:01;;;;;;;6.08;3.85;;;;;;;14.21;62.33;100033.14;1715309;83;21556;-71
2021/06/05 01:29:33;;;;;;;7.12;3.95;;;;;;;14.19;62.48;100032.61;1687887;85;22085;-70
2021/06/05 01:32:03;;;;;;;4.03;3.70;;;;;;;14.18;62.49;100033.15;1685764;85;21000;-71
2021/06/05 01:34:34;;;;;;;6.72;4.28;;;;;;;14.17;62.71;100029.34;1674856;85;21541;-70
2021/06/05 01:37:02;;;;;;;5.83;3.62;;;;;;;14.15;62.76;100033.66;1630125;85;21008;-72
2021/06/05 01:39:32;;;;;;;7.97;3.60;;;;;;;14.13;62.95;100029.07;1688524;85;21505;-70
2021/06/05 01:42:02;;;;;;;5.12;3.83;;;;;;;14.10;63.04;100032.28;1685622;85;22079;-74
2021/06/05 01:44:31;;;;;;;4.75;3.50;;;;;;;14.09;63.17;100033.92;1641636;86;21020;-72
2021/06/05 01:46:58;;;;;;;3.92;3.08;;;;;;;14.06;63.26;100032.55;1692141;84;21054;-71
2021/06/05 01:49:26;;;;;;;8.15;3.77;;;;;;;14.03;63.53;100031.73;1690253;84;21063;-71
2021/06/05 01:51:58;;;;;;;10.88;4.47;;;;;;;13.98;63.74;100038.47;1687468;85;21107;-78
2021/06/05 01:54:39;;;;;;;5.28;3.55;;;;;;;13.92;64.00;100037.63;1662306;85;21758;-71
2021/06/05 01:57:11;;;;;;;6.85;3.47;;;;;;;13.87;64.30;100038.95;1673607;85;20983;-70
2021/06/05 01:59:54;;;;;;;7.15;3.77;;;;;;;13.80;64.58;100042.45;1627863;86;22187;-69
2021/06/05 02:02:23;;;;;;;6.30;5.55;;;;;;;13.74;64.70;100035.91;1662590;85;21030;-70
2021/06/05 02:04:52;;;;;;;5.45;3.72;;;;;;;13.72;64.71;100035.34;1661132;85;21056;-70
2021/06/05 02:07:19;;;;;;;5.20;4.67;;;;;;;13.70;64.82;100028.87;1648169;87;21734;-81
2021/06/05 02:09:51;;;;;;;7.53;3.77;;;;;;;13.71;64.83;100031.03;1664704;85;20908;-71
2021/06/05 02:12:33;;;;;;;4.42;4.00;;;;;;;13.70;64.94;100028.05;1676431;85;20983;-70
2021/06/05 02:15:10;;;;;;;5.80;3.72;;;;;;;13.69;65.02;100030.47;1676357;85;21627;-71
2021/06/05 02:17:39;;;;;;;5.75;4.42;;;;;;;13.68;65.06;100022.89;1683599;85;21004;-73
2021/06/05 02:20:12;;;;;;;8.10;3.98;;;;;;;13.68;65.13;100028.84;1625470;87;21841;-70
2021/06/05 02:22:42;;;;;;;7.67;3.98;;;;;;;13.66;65.29;100019.66;1673852;85;21010;-72
2021/06/05 02:25:10;;;;;;;9.63;3.77;;;;;;;13.65;65.40;100026.13;1651278;84;23416;-70
2021/06/05 02:27:38;;;;;;;4.70;4.30;;;;;;;13.64;65.64;100022.33;1648685;87;21515;-70
2021/06/05 02:30:11;;;;;;;6.12;4.67;;;;;;;13.64;65.90;100030.44;1625828;87;21550;-70
2021/06/05 02:32:39;;;;;;;6.17;4.70;;;;;;;13.62;66.07;100021.23;1604938;87;21847;-70
2021/06/05 02:35:12;;;;;;;4.83;4.17;;;;;;;13.63;66.29;100016.64;1626806;87;21061;-70
2021/06/05 02:37:46;;;;;;;9.23;4.20;;;;;;;13.63;66.39;100020.70;1652772;86;21807;-70
2021/06/05 02:40:18;;;;;;;6.35;4.12;;;;;;;13.63;66.47;100020.70;1652286;85;21022;-70
2021/06/05 02:42:44;;;;;;;5.05;4.08;;;;;;;13.63;66.55;100021.52;1639790;85;21522;-71
2021/06/05 02:45:30;;;;;;;4.58;4.17;;;;;;;13.64;66.62;100018.28;1664006;85;21052;-71
2021/06/05 02:48:00;;;;;;;6.05;4.85;;;;;;;13.66;66.66;100025.06;1663530;85;21096;-70
2021/06/05 02:50:34;;;;;;;5.55;4.15;;;;;;;13.67;66.74;100020.48;1687821;85;21025;-71
2021/06/05 02:53:02;;;;;;;7.72;4.42;;;;;;;13.69;67.06;100015.60;1679710;84;20944;-70
2021/06/05 02:55:29;;;;;;;5.50;3.80;;;;;;;13.71;67.32;100015.64;1640976;86;21052;-71
2021/06/05 02:57:55;;;;;;;6.83;3.95;;;;;;;13.73;67.42;100018.88;1671062;85;22047;-73
2021/06/05 03:00:37;;;;;;;8.55;4.62;;;;;;;13.79;67.54;100015.66;1649978;85;21023;-69
2021/06/05 03:03:07;;;;;;;5.83;4.15;;;;;;;13.85;67.53;100018.67;1668197;84;20991;-71
2021/06/05 03:05:34;;;;;;;5.97;4.22;;;;;;;13.93;67.36;100019.52;1692173;84;21067;-70
2021/06/05 03:08:02;;;;;;;7.55;3.62;;;;;;;14.02;66.98;100016.58;1692833;84;21074;-71
2021/06/05 03:10:31;;;;;;;4.22;3.83;;;;;;;14.10;66.63;100019.33;1674910;85;21533;-71
2021/06/05 03:13:00;;;;;;;5.03;3.75;;;;;;;14.19;66.48;100012.33;1664617;85;21007;-73
2021/06/05 03:15:27;;;;;;;8.78;4.00;;;;;;;14.26;66.34;100015.05;1636748;87;20988;-71
2021/06/05 03:17:55;;;;;;;5.35;2.92;;;;;;;14.29;66.11;100013.14;1658926;86;20991;-71
2021/06/05 03:20:25;;;;;;;3.77;3.47;;;;;;;14.34;65.89;100013.16;1663906;86;21568;-70
2021/06/05 03:22:51;;;;;;;7.28;4.40;;;;;;;14.39;65.85;100016.45;1688719;84;21118;-71
2021/06/05 03:25:21;;;;;;;3.20;2.90;;;;;;;14.42;65.79;100012.41;1692218;84;21553;-71
2021/06/05 03:27:47;;;;;;;4.28;3.40;;;;;;;14.44;65.79;100014.30;1668593;84;21023;-71
2021/06/05 03:30:15;;;;;;;6.55;3.45;;;;;;;14.44;65.60;100019.17;1668429;84;21036;-73
2021/06/05 03:32:43;;;;;;;4.12;3.72;;;;;;;14.47;65.50;100022.72;1668158;85;21069;-71
2021/06/05 03:35:11;;;;;;;9.03;4.65;;;;;;;14.51;65.08;100014.33;1663567;86;21046;-72
2021/06/05 03:37:38;;;;;;;3.83;3.30;;;;;;;14.57;64.78;100015.16;1661163;85;20952;-71
2021/06/05 03:40:11;;;;;;;4.42;3.47;;;;;;;14.63;64.64;100010.00;1692261;84;20905;-72
2021/06/05 03:42:38;;;;;;;6.37;3.73;;;;;;;14.69;64.53;100013.81;1668123;84;21015;-72
2021/06/05 03:45:07;;;;;;;6.33;4.30;;;;;;;14.74;64.06;100013.82;1692548;84;21087;-80
2021/06/05 03:47:34;;;;;;;10.88;4.05;;;;;;;14.81;63.99;100011.68;1668510;84;21223;-70
2021/06/05 03:50:07;;;;;;;7.17;4.40;;;;;;;14.87;63.84;100013.82;1668366;84;21057;-72
2021/06/05 03:52:34;;;;;;;4.15;3.80;;;;;;;14.92;63.44;100013.02;1687636;84;21028;-71
2021/06/05 03:55:03;;;;;;;6.72;3.60;;;;;;;14.97;63.30;100011.66;1622171;86;21019;-71
2021/06/05 03:57:33;;;;;;;5.08;3.42;;;;;;;15.03;63.05;100015.47;1667611;85;21581;-71
2021/06/05 04:00:01;;;;;;;3.72;2.98;;;;;;;15.08;62.69;100016.01;1669454;84;22031;-70
2021/06/05 04:02:28;;;;;;;4.30;3.90;;;;;;;15.14;62.56;100017.09;1656034;85;21128;-80
2021/06/05 04:04:55;;;;;;;9.38;3.70;;;;;;;15.20;62.40;100015.98;1671084;84;21031;-69
2021/06/05 04:07:23;;;;;;;5.03;3.20;;;;;;;15.27;62.29;100013.83;1647135;86;21103;-71
2021/06/05 04:09:50;;;;;;;3.47;3.17;;;;;;;15.37;62.20;100010.83;1696939;83;21028;-68
2021/06/05 04:12:17;;;;;;;9.83;4.08;;;;;;;15.45;62.04;100011.62;1689329;84;21179;-71
2021/06/05 04:14:43;;;;;;;7.62;3.47;;;;;;;15.54;61.67;100009.47;1650084;86;21039;-69
2021/06/05 04:17:11;;;;;;;4.20;3.50;;;;;;;15.64;61.42;100006.73;1676477;85;20985;-70
2021/06/05 04:19:37;;;;;;;4.25;3.17;;;;;;;15.74;61.16;100007.25;1650317;85;21603;-70
2021/06/05 04:22:07;;;;;;;4.08;2.77;;;;;;;15.84;60.74;100016.72;1692922;84;21578;-72
2021/06/05 04:24:35;;;;;;;4.72;3.62;;;;;;;15.94;60.20;100009.09;1674108;85;21341;-70
2021/06/05 04:27:03;;;;;;;5.05;3.25;;;;;;;16.03;59.93;100022.34;1693207;84;20959;-71
2021/06/05 04:29:31;;;;;;;3.42;2.80;;;;;;;16.09;59.51;100007.67;1663207;86;21072;-70
2021/06/05 04:31:58;;;;;;;4.70;3.75;;;;;;;16.17;59.33;100004.91;1649535;85;21055;-69
2021/06/05 04:34:24;;;;;;;4.83;3.35;;;;;;;16.23;59.18;100003.27;1650909;84;21052;-69
2021/06/05 04:36:51;;;;;;;4.62;2.83;;;;;;;16.30;59.25;100001.61;1671557;85;21155;-70
2021/06/05 04:39:20;;;;;;;6.65;3.55;;;;;;;16.37;59.01;100000.20;1692830;84;21023;-69
2021/06/05 04:41:46;;;;;;;7.08;3.50;;;;;;;16.43;58.85;99997.73;1675668;85;20955;-71
2021/06/05 04:44:12;;;;;;;5.90;3.05;;;;;;;16.50;58.39;99995.50;1692939;84;21601;-70
2021/06/05 04:46:39;;;;;;;7.28;3.15;;;;;;;16.55;58.53;99996.82;1657707;86;21544;-69
2021/06/05 04:49:08;;;;;;;4.72;4.28;;;;;;;16.63;58.51;99991.93;1647142;87;21013;-70
2021/06/05 04:51:36;;;;;;;4.90;3.35;;;;;;;16.69;57.75;99998.38;1676272;85;20912;-70
2021/06/05 04:54:06;;;;;;;6.35;2.75;;;;;;;16.75;57.54;99995.91;1660039;84;20943;-70
2021/06/05 04:56:40;;;;;;;8.25;3.17;;;;;;;16.82;57.84;99997.77;1678696;84;21497;-69
2021/06/05 04:59:06;;;;;;;4.92;3.30;;;;;;;16.87;57.73;99997.73;1678567;84;21055;-70
2021/06/05 05:01:34;;;;;;;4.67;3.70;;;;;;;16.90;57.47;99997.16;1678727;85;20935;-70
2021/06/05 05:04:01;;;;;;;5.17;2.92;;;;;;;16.93;57.38;99991.14;1678632;84;21034;-70
2021/06/05 05:06:28;;;;;;;11.83;3.35;;;;;;;16.96;57.58;99994.67;1678731;85;20939;-70
2021/06/05 05:08:55;;;;;;;4.78;3.08;;;;;;;16.97;57.20;99987.33;1657169;85;21043;-70
2021/06/05 05:11:22;;;;;;;7.50;4.10;;;;;;;16.99;57.30;99989.20;1651777;86;22324;-70
2021/06/05 05:13:49;;;;;;;8.65;3.98;;;;;;;17.04;57.26;99989.70;1640320;86;21109;-71
2021/06/05 05:16:16;;;;;;;9.05;3.98;;;;;;;17.08;57.28;99990.20;1661785;86;21123;-71
2021/06/05 05:18:46;;;;;;;4.92;3.50;;;;;;;17.15;57.12;99989.34;1660980;85;21068;-70
2021/06/05 05:21:11;;;;;;;4.65;3.12;;;;;;;17.22;57.49;99987.08;1664460;84;21013;-71
2021/06/05 05:23:38;;;;;;;5.03;3.22;;;;;;;17.30;57.45;99989.20;1678863;85;21519;-70
2021/06/05 05:26:06;;;;;;;4.83;3.67;;;;;;;17.39;57.46;99978.50;1641439;86;21220;-71
2021/06/05 05:28:34;;;;;;;5.45;3.35;;;;;;;17.44;56.98;99981.98;1678797;84;21493;-69
2021/06/05 05:31:04;;;;;;;8.53;3.95;;;;;;;17.50;56.76;99978.67;1664539;84;21099;-70
2021/06/05 05:33:34;;;;;;;5.70;3.02;;;;;;;17.56;56.25;99977.49;1673232;85;20935;-69
2021/06/05 05:36:00;;;;;;;5.22;3.25;;;;;;;17.61;55.79;99974.75;1684846;84;20979;-68
2021/06/05 05:38:27;;;;;;;5.10;3.15;;;;;;;17.65;55.66;99980.45;1648279;84;21616;-70
2021/06/05 05:40:53;;;;;;;4.70;3.42;;;;;;;17.69;55.49;99979.58;1693563;84;20963;-75
2021/06/05 05:43:20;;;;;;;3.62;3.12;;;;;;;17.73;55.71;99984.70;1695036;84;21019;-70
2021/06/05 05:45:48;;;;;;;7.17;2.90;;;;;;;17.73;55.98;99975.17;1663772;84;21059;-72
2021/06/05 05:48:15;;;;;;;9.50;2.83;;;;;;;17.74;55.77;99975.44;1664394;84;21058;-69
2021/06/05 05:50:43;;;;;;;5.37;3.20;;;;;;;17.79;56.01;99967.77;1657186;85;21313;-71
2021/06/05 05:53:10;;;;;;;4.15;3.05;;;;;;;17.84;56.01;99973.15;1641288;86;21033;-72
2021/06/05 05:55:36;;;;;;;4.30;2.65;;;;;;;17.89;55.90;99970.33;1643199;86;21082;-71
2021/06/05 05:58:09;;;;;;;5.12;2.65;;;;;;;17.95;55.49;99963.73;1641878;86;21124;-69
2021/06/05 06:00:37;;;;;;;6.58;4.35;;;;;;;18.01;55.08;99959.86;1660091;85;23947;-71
2021/06/05 06:03:06;;;;;;;3.12;2.55;;;;;;;18.10;55.62;99957.28;1653657;86;20952;-70
2021/06/05 06:05:34;;;;;;;4.70;3.10;;;;;;;18.18;55.27;99957.44;1676939;85;21055;-70
2021/06/05 06:08:01;;;;;;;2.92;2.70;;;;;;;18.27;54.11;99956.25;1677381;85;22171;-68
2021/06/05 06:10:28;;;;;;;3.72;2.80;;;;;;;18.37;54.11;99951.99;1656482;85;21463;-69
2021/06/05 06:12:54;;;;;;;5.20;2.83;;;;;;;18.46;53.00;99948.89;1705339;84;21000;-72
2021/06/05 06:15:24;;;;;;;8.05;3.05;;;;;;;18.56;53.09;99952.04;1689771;84;21087;-71
2021/06/05 06:17:53;;;;;;;5.85;2.45;;;;;;;18.65;52.42;99951.62;1669351;84;21053;-70
2021/06/05 06:20:32;;;;;;;8.50;2.25;;;;;;;18.72;51.04;99945.23;1691731;84;21087;-69
2021/06/05 06:22:59;;;;;;;5.17;2.60;;;;;;;18.77;51.38;99944.33;1679550;84;21013;-75
2021/06/05 06:25:29;;;;;;;4.60;2.83;;;;;;;18.81;51.60;99943.44;1648591;84;21181;-72
2021/06/05 06:27:55;;;;;;;3.70;2.60;;;;;;;18.86;51.43;99937.91;1669972;84;21048;-70
2021/06/05 06:30:30;;;;;;;7.33;2.87;;;;;;;18.92;51.30;99938.08;1687178;84;20963;-73
2021/06/05 06:32:57;;;;;;;5.17;3.98;;;;;;;18.98;51.72;99934.72;1659746;85;21506;-71
2021/06/05 06:35:26;;;;;;;3.90;3.30;;;;;;;19.04;51.85;99941.13;1661626;85;21010;-71
2021/06/05 06:37:53;;;;;;;4.47;3.05;;;;;;;19.12;52.10;99941.01;1637024;84;21052;-70
2021/06/05 06:40:22;;;;;;;3.30;2.35;;;;;;;19.19;52.01;99934.59;1709601;84;21154;-71
2021/06/05 06:42:48;;;;;;;8.30;3.17;;;;;;;19.25;52.30;99937.48;1709799;83;21000;-71
2021/06/05 06:45:14;;;;;;;5.60;3.15;;;;;;;19.29;52.47;99926.78;1689961;83;21009;-70
2021/06/05 06:47:41;;;;;;;4.78;2.35;;;;;;;19.35;51.79;99926.39;1681951;84;21028;-72
2021/06/05 06:50:09;;;;;;;2.75;2.35;;;;;;;19.41;49.75;99920.29;1682241;84;21556;-70
2021/06/05 06:52:35;;;;;;;2.92;2.72;;;;;;;19.48;50.34;99917.98;1662804;84;21131;-70
2021/06/05 06:55:05;;;;;;;4.08;2.95;;;;;;;19.55;51.99;99923.86;1658099;85;20971;-70
2021/06/05 06:57:32;;;;;;;6.05;3.62;;;;;;;19.63;51.72;99925.05;1663925;85;21541;-69
2021/06/05 06:59:59;;;;;;;7.15;3.27;;;;;;;19.68;51.47;99929.86;1692520;83;20979;-70
2021/06/05 07:02:25;;;;;;;4.92;3.30;;;;;;;19.73;51.32;99918.03;1679195;84;21099;-68
2021/06/05 07:04:53;;;;;;;3.10;2.62;;;;;;;19.77;51.48;99916.30;1663906;85;21314;-69
2021/06/05 07:07:22;;;;;;;5.78;3.77;;;;;;;19.82;51.48;99917.56;1679630;84;21032;-69
2021/06/05 07:09:48;;;;;;;4.53;2.60;;;;;;;19.92;50.50;99913.25;1673586;84;21536;-69
2021/06/05 07:12:14;;;;;;;3.27;2.58;;;;;;;19.99;48.02;99906.28;1678215;84;21047;-70
2021/06/05 07:14:42;;;;;;;5.50;3.27;;;;;;;20.07;47.88;99908.02;1656751;86;21016;-68
2021/06/05 07:17:08;;;;;;;6.40;3.08;;;;;;;20.16;48.62;99906.98;1659658;86;22001;-70
2021/06/05 07:19:35;;;;;;;3.35;2.30;;;;;;;20.23;48.47;99902.47;1672969;85;20936;-71
2021/06/05 07:22:02;;;;;;;3.92;1.77;;;;;;;20.28;47.30;99911.36;1665059;84;21071;-69
2021/06/05 07:24:30;;;;;;;3.05;2.65;;;;;;;20.34;46.59;99906.59;1672074;85;21080;-70
2021/06/05 07:26:58;;;;;;;6.03;2.20;;;;;;;20.39;47.12;99914.12;1716334;83;21035;-68
2021/06/05 07:29:25;;;;;;;4.67;2.75;;;;;;;20.45;45.68;99906.61;1671037;85;21217;-69
2021/06/05 07:31:52;;;;;;;6.15;2.58;;;;;;;20.48;43.90;99905.20;1650539;85;20952;-69
2021/06/05 07:34:22;;;;;;;5.08;1.75;;;;;;;20.49;44.49;99897.23;1675807;85;21007;-69
2021/06/05 07:36:52;;;;;;;8.90;2.12;;;;;;;20.51;44.74;99891.72;1649903;85;21054;-71
2021/06/05 07:39:23;;;;;;;2.80;2.08;;;;;;;20.57;43.19;99894.58;1697607;83;21000;-69
2021/06/05 07:41:49;;;;;;;6.55;2.62;;;;;;;20.67;43.75;99891.57;1694357;84;21095;-69
2021/06/05 07:44:16;;;;;;;2.67;1.80;;;;;;;20.79;44.27;99892.38;1689189;83;20944;-68
2021/06/05 07:46:46;;;;;;;10.08;2.02;;;;;;;20.90;44.25;99896.48;1676641;85;22289;-71
2021/06/05 07:49:12;;;;;;;8.15;2.85;;;;;;;20.96;43.11;99891.69;1681222;84;21030;-70
2021/06/05 07:51:39;;;;;;;4.75;1.90;;;;;;;20.99;43.25;99887.76;1691273;84;21036;-70
2021/06/05 07:54:06;;;;;;;3.37;2.72;;;;;;;21.04;43.87;99877.24;1689807;84;21492;-70
2021/06/05 07:56:33;;;;;;;4.37;2.30;;;;;;;21.04;45.20;99882.72;1677993;84;21025;-70
2021/06/05 07:59:00;;;;;;;10.23;2.30;;;;;;;21.07;44.95;99884.25;1679075;84;20949;-72
2021/06/05 08:01:27;;;;;;;2.92;2.50;;;;;;;21.08;44.24;99879.03;1677160;85;21085;-71
2021/06/05 08:03:53;;;;;;;2.65;2.42;;;;;;;21.03;44.45;99873.70;1677047;85;21033;-71
2021/06/05 08:06:20;;;;;;;3.25;2.20;;;;;;;21.07;44.41;99875.23;1667016;85;21040;-72
2021/06/05 08:08:48;;;;;;;2.98;2.67;;;;;;;21.13;43.88;99872.09;1688812;83;20922;-71
2021/06/05 08:11:18;;;;;;;2.92;2.05;;;;;;;21.17;44.12;99881.84;1653728;86;21425;-71
2021/06/05 08:13:46;;;;;;;6.62;2.02;;;;;;;21.16;43.18;99874.19;1682023;85;21009;-73
2021/06/05 08:16:13;;;;;;;5.00;1.82;;;;;;;21.17;43.22;99862.69;1681928;84;21631;-72
2021/06/05 08:18:39;;;;;;;3.50;2.05;;;;;;;21.17;43.22;99862.69;1683843;84;21148;-71
2021/06/05 08:21:12;;;;;;;6.85;2.62;;;;;;;21.21;43.61;99859.56;1672476;84;21095;-69
2021/06/05 08:23:39;;;;;;;5.95;2.83;;;;;;;21.27;43.54;99863.22;1667351;84;20921;-73
2021/06/05 08:26:06;;;;;;;2.52;2.33;;;;;;;21.24;42.42;99859.75;1643548;84;21000;-69
2021/06/05 08:28:34;;;;;;;7.20;3.47;;;;;;;21.20;42.94;99856.57;1691330;84;21083;-69
2021/06/05 08:31:04;;;;;;;10.05;2.52;;;;;;;21.28;43.07;99855.81;1685973;84;21315;-70
2021/06/05 08:33:31;;;;;;;3.45;2.42;;;;;;;21.34;43.15;99858.66;1625014;86;21725;-70
2021/06/05 08:35:57;;;;;;;6.65;2.22;;;;;;;21.41;42.31;99858.19;1645585;84;21011;-70
2021/06/05 08:38:27;;;;;;;4.10;2.10;;;;;;;21.41;41.94;99851.34;1684259;84;21074;-74
2021/06/05 08:41:14;;;;;;;11.30;3.40;;;;;;;21.38;42.13;99847.33;1643631;86;21051;-72
2021/06/05 08:44:03;;;;;;;3.83;2.45;;;;;;;21.37;42.16;99851.73;1689339;84;21150;-71
2021/06/05 08:46:38;;;;;;;3.15;1.87;;;;;;;21.41;42.39;99845.87;1664551;86;21031;-70
2021/06/05 08:49:11;;;;;;;2.37;2.17;;;;;;;21.48;42.53;99842.93;1686911;84;22432;-70
2021/06/05 08:51:51;;;;;;;2.83;1.90;;;;;;;21.51;42.43;99842.28;1661461;84;21123;-68
2021/06/05 08:54:50;;;;;;;4.08;1.87;;;;;;;21.58;42.03;99844.56;1693109;83;21081;-70
2021/06/05 08:57:34;;;;;;;2.47;2.27;;;;;;;21.61;41.75;99839.25;1646584;85;21299;-70
2021/06/05 09:00:09;;;;;;;4.42;1.92;;;;;;;21.70;41.18;99835.95;1695029;84;21625;-69
2021/06/05 09:02:36;;;;;;;6.97;2.22;;;;;;;21.78;40.52;99828.88;1694511;84;21503;-70
2021/06/05 09:05:10;;;;;;;2.47;1.57;;;;;;;21.77;39.69;99829.21;1671209;84;21019;-70
2021/06/05 09:07:36;;;;;;;3.60;2.37;;;;;;;21.70;39.67;99826.37;1648695;86;21022;-69
2021/06/05 09:10:05;;;;;;;2.25;1.98;;;;;;;21.67;39.35;99831.69;1650701;84;21008;-70
2021/06/05 09:12:31;;;;;;;2.75;2.12;;;;;;;21.69;39.99;99834.34;1677365;85;21055;-69
2021/06/05 09:14:58;;;;;;;3.12;2.10;;;;;;;21.72;39.61;99828.25;1675636;85;21552;-70
2021/06/05 09:17:37;;;;;;;2.52;1.95;;;;;;;21.78;39.56;99835.72;1659859;86;21032;-70
2021/06/05 09:20:13;;;;;;;8.55;2.22;;;;;;;21.78;39.22;99822.02;1646904;86;21353;-71
2021/06/05 09:22:42;;;;;;;13.55;2.47;;;;;;;21.74;39.37;99825.16;1681286;85;21533;-70
2021/06/05 09:25:35;;;;;;;2.83;2.15;;;;;;;21.72;39.36;99823.33;1653812;86;21011;-70
2021/06/05 09:28:28;;;;;;;6.17;2.77;;;;;;;21.80;39.05;99814.87;1682266;84;21087;-72
2021/06/05 09:31:17;;;;;;;5.03;2.83;;;;;;;21.93;38.83;99819.38;1694245;84;21098;-70
2021/06/05 09:33:43;;;;;;;2.47;1.67;;;;;;;22.03;38.39;99810.87;1658183;86;21079;-68
2021/06/05 09:36:26;;;;;;;2.92;2.10;;;;;;;22.01;39.08;99822.73;1678405;84;21541;-70
2021/06/05 09:39:00;;;;;;;5.65;1.82;;;;;;;22.04;39.06;99814.67;1694146;84;21538;-68
2021/06/05 09:41:38;;;;;;;3.02;1.82;;;;;;;22.09;38.44;99802.74;1670126;84;21584;-71
2021/06/05 09:44:25;;;;;;;8.35;1.85;;;;;;;22.15;38.50;99795.98;1656671;84;21070;-69
2021/06/05 09:47:19;;;;;;;2.25;2.05;;;;;;;22.27;38.21;99792.56;1694215;84;21090;-69
2021/06/05 09:49:47;;;;;;;;;;;;;;;22.39;35.93;99796.83;1690872;84;21210;-68
2021/06/05 09:52:31;;;;;;;10.23;2.33;;;;;;;22.44;36.71;99784.33;1649818;85;20215;-70
2021/06/05 09:55:08;;;;;;;2.40;2.05;;;;;;;22.57;36.91;99784.69;1679869;84;21228;-68
2021/06/05 09:57:39;;;;;;;7.72;2.42;;;;;;;22.72;36.91;99784.19;1677594;85;21016;-68
2021/06/05 10:00:32;;;;;;;4.37;1.90;;;;;;;22.84;36.20;99795.83;1658030;85;21080;-69
2021/06/05 10:03:32;;;;;;;3.27;1.77;;;;;;;22.83;36.30;99793.65;1679787;84;21072;-69
2021/06/05 10:06:17;;;;;;;7.87;2.47;;;;;;;22.90;36.37;99784.36;1676703;84;21592;-70
2021/06/05 10:08:43;;;;;;;4.08;1.62;;;;;;;22.98;36.00;99775.84;1651830;85;21048;-70
2021/06/05 10:11:35;;;;;;;7.12;2.25;;;;;;;23.07;35.32;99773.08;1686307;84;21055;-72
2021/06/05 10:14:09;;;;;;;4.85;2.00;;;;;;;23.08;35.42;99777.41;1654739;84;21101;-70
2021/06/05 10:16:41;;;;;;;7.17;2.00;;;;;;;23.16;35.65;99773.27;1673488;84;21485;-72
2021/06/05 10:19:18;;;;;;;4.87;2.30;;;;;;;23.24;35.80;99790.25;1678871;84;21217;-70
2021/06/05 10:21:47;;;;;;;3.20;2.90;;;;;;;23.22;36.57;99803.48;1676556;84;20992;-72
2021/06/05 10:24:26;;;;;;;7.62;3.12;;;;;;;23.06;37.24;99775.58;1647020;84;21036;-73
2021/06/05 10:26:54;;;;;;;5.30;2.33;;;;;;;22.95;37.86;99781.44;1665650;85;21660;-73
2021/06/05 10:29:44;;;;;;;6.55;2.62;;;;;;;22.88;37.86;99775.64;1643726;86;21052;-74
2021/06/05 10:32:18;;;;;;;4.97;1.77;;;;;;;22.84;37.95;99791.15;1669221;84;21077;-74
2021/06/05 10:34:57;;;;;;;5.35;2.67;;;;;;;22.79;38.10;99783.10;1677147;84;20992;-73
2021/06/05 10:37:26;;;;;;;4.40;2.20;;;;;;;22.75;37.79;99788.20;1685038;84;21123;-72
2021/06/05 10:39:53;;;;;;;5.50;2.85;;;;;;;22.71;37.63;99777.66;1642246;86;21047;-70
2021/06/05 10:42:35;;;;;;;3.12;2.15;;;;;;;22.65;37.72;99790.70;1667938;84;21969;-71
2021/06/05 10:45:01;;;;;;;5.10;2.52;;;;;;;22.59;37.89;99785.95;1682836;84;21078;-71
2021/06/05 10:47:34;;;;;;;9.43;2.75;;;;;;;22.56;38.33;99771.54;1651195;85;21051;-74
2021/06/05 10:50:06;;;;;;;5.45;2.87;;;;;;;22.66;38.63;99770.94;1668709;84;20956;-73
2021/06/05 10:52:43;;;;;;;7.05;2.92;;;;;;;22.74;38.64;99757.79;1664762;84;21047;-73
2021/06/05 10:55:42;;;;;;;11.65;4.25;;;;;;;22.87;38.70;99769.94;1668629;85;21121;-71
2021/06/05 10:58:28;;;;;;;3.40;2.60;;;;;;;22.93;38.30;99762.30;1654505;85;20997;-75
2021/06/05 11:00:59;;;;;;;3.83;2.25;;;;;;;22.96;38.25;99759.73;1651353;85;21017;-73
2021/06/05 11:03:31;;;;;;;4.28;3.40;;;;;;;23.03;37.88;99755.88;1642114;84;20973;-77
2021/06/05 11:06:05;;;;;;;4.42;2.33;;;;;;;23.08;38.00;99771.92;1671810;85;21515;-72
2021/06/05 11:08:51;;;;;;;3.27;2.22;;;;;;;23.02;38.22;99763.88;1665129;85;21016;-71
2021/06/05 11:11:42;;;;;;;10.75;2.92;;;;;;;22.94;38.21;99755.69;1672466;85;21616;-72
2021/06/05 11:14:24;;;;;;;8.73;2.65;;;;;;;22.84;38.04;99767.03;1654696;85;21010;-71
2021/06/05 11:17:11;;;;;;;11.00;2.42;;;;;;;22.77;37.99;99768.93;1618142;87;21546;-74
2021/06/05 11:19:42;;;;;;;8.30;2.22;;;;;;;22.66;38.28;99774.49;1664569;85;21576;-72
2021/06/05 11:22:19;;;;;;;8.00;2.62;;;;;;;22.54;39.06;99780.64;1673353;85;21008;-72
2021/06/05 11:25:12;;;;;;;5.78;3.20;;;;;;;22.45;38.36;99788.09;1644512;85;21040;-75
2021/06/05 11:27:45;;;;;;;4.17;2.87;;;;;;;22.36;38.95;99779.64;1690683;84;21018;-75
2021/06/05 11:30:27;;;;;;;4.03;2.67;;;;;;;22.28;39.28;99776.36;1663909;85;21152;-72
2021/06/05 11:33:08;;;;;;;4.22;3.67;;;;;;;22.25;39.87;99772.92;1655682;85;21588;-72
2021/06/05 11:35:49;;;;;;;3.33;3.02;;;;;;;22.28;40.19;99772.26;1631045;85;21497;-71
2021/06/05 11:38:24;;;;;;;8.75;2.60;;;;;;;22.34;40.04;99758.06;1643546;86;21549;-73
2021/06/05 11:41:11;;;;;;;3.00;2.42;;;;;;;22.47;40.06;99758.98;1678475;85;20919;-73
2021/06/05 11:43:42;;;;;;;4.83;2.60;;;;;;;22.65;39.15;99767.95;1675954;84;20984;-73
2021/06/05 11:46:24;;;;;;;4.10;2.92;;;;;;;22.75;38.74;99758.84;1671264;84;20987;-69
2021/06/05 11:49:04;;;;;;;2.55;2.35;;;;;;;22.88;38.05;99756.44;1655544;85;21340;-71